sensor_id;sensor_type;location;lat;lon;timestamp;pressure;altitude;pressure_sealevel;temperature;humidity
75290;BME280;63883;48.996;20.804;2023-04-06T00:01:07;96669.19;;;-2.31;64.74
75290;BME280;63883;48.996;20.804;2023-04-06T00:03:33;96665.84;;;-2.30;64.74
75290;BME280;63883;48.996;20.804;2023-04-06T00:05:59;96660.00;;;-2.32;64.66
75290;BME280;63883;48.996;20.804;2023-04-06T00:08:26;96662.59;;;-2.28;64.36
75290;BME280;63883;48.996;20.804;2023-04-06T00:10:51;96670.13;;;-2.26;63.92
75290;BME280;63883;48.996;20.804;2023-04-06T00:13:17;96670.13;;;-2.26;63.59
75290;BME280;63883;48.996;20.804;2023-04-06T00:15:43;96661.25;;;-2.14;62.84
75290;BME280;63883;48.996;20.804;2023-04-06T00:18:09;96664.91;;;-2.00;62.58
75290;BME280;63883;48.996;20.804;2023-04-06T00:20:34;96655.75;;;-1.99;62.57
75290;BME280;63883;48.996;20.804;2023-04-06T00:23:00;96654.88;;;-2.03;62.20
75290;BME280;63883;48.996;20.804;2023-04-06T00:25:26;96659.88;;;-2.03;62.41
75290;BME280;63883;48.996;20.804;2023-04-06T00:27:52;96657.53;;;-1.93;61.71
75290;BME280;63883;48.996;20.804;2023-04-06T00:30:18;96645.72;;;-2.02;62.20
75290;BME280;63883;48.996;20.804;2023-04-06T00:32:44;96649.88;;;-2.01;61.88
75290;BME280;63883;48.996;20.804;2023-04-06T00:35:09;96647.25;;;-2.07;62.47
75290;BME280;63883;48.996;20.804;2023-04-06T00:37:36;96638.72;;;-2.15;62.87
75290;BME280;63883;48.996;20.804;2023-04-06T00:40:02;96639.72;;;-2.09;62.06
75290;BME280;63883;48.996;20.804;2023-04-06T00:42:28;96634.44;;;-2.21;62.94
75290;BME280;63883;48.996;20.804;2023-04-06T00:44:58;96635.84;;;-2.33;63.23
75290;BME280;63883;48.996;20.804;2023-04-06T00:47:25;96630.00;;;-2.34;63.16
75290;BME280;63883;48.996;20.804;2023-04-06T00:49:52;96635.25;;;-2.22;62.17
75290;BME280;63883;48.996;20.804;2023-04-06T00:52:19;96626.47;;;-2.06;61.71
75290;BME280;63883;48.996;20.804;2023-04-06T00:54:45;96627.25;;;-2.07;61.59
75290;BME280;63883;48.996;20.804;2023-04-06T00:57:12;96635.50;;;-2.11;62.31
75290;BME280;63883;48.996;20.804;2023-04-06T00:59:39;96626.88;;;-2.25;62.57
75290;BME280;63883;48.996;20.804;2023-04-06T01:02:05;96620.84;;;-2.33;62.79
75290;BME280;63883;48.996;20.804;2023-04-06T01:04:31;96613.09;;;-2.44;63.36
75290;BME280;63883;48.996;20.804;2023-04-06T01:06:57;96613.22;;;-2.40;63.03
75290;BME280;63883;48.996;20.804;2023-04-06T01:09:22;96615.91;;;-2.30;62.84
75290;BME280;63883;48.996;20.804;2023-04-06T01:11:48;96614.03;;;-2.41;63.38
75290;BME280;63883;48.996;20.804;2023-04-06T01:14:14;96615.72;;;-2.40;63.78
75290;BME280;63883;48.996;20.804;2023-04-06T01:16:41;96611.72;;;-2.33;64.01
75290;BME280;63883;48.996;20.804;2023-04-06T01:19:11;96614.91;;;-2.01;61.37
75290;BME280;63883;48.996;20.804;2023-04-06T01:21:37;96601.00;;;-1.90;60.64
75290;BME280;63883;48.996;20.804;2023-04-06T01:24:04;96602.41;;;-2.03;62.04
75290;BME280;63883;48.996;20.804;2023-04-06T01:26:31;96603.72;;;-2.18;63.04
75290;BME280;63883;48.996;20.804;2023-04-06T01:28:57;96604.34;;;-2.27;63.08
75290;BME280;63883;48.996;20.804;2023-04-06T01:31:23;96602.78;;;-2.22;63.06
75290;BME280;63883;48.996;20.804;2023-04-06T01:33:49;96606.03;;;-2.26;63.08
75290;BME280;63883;48.996;20.804;2023-04-06T01:36:15;96591.69;;;-2.34;63.42
75290;BME280;63883;48.996;20.804;2023-04-06T01:38:41;96597.50;;;-2.36;63.56
75290;BME280;63883;48.996;20.804;2023-04-06T01:41:07;96595.03;;;-2.34;63.65
75290;BME280;63883;48.996;20.804;2023-04-06T01:43:33;96593.97;;;-2.44;63.85
75290;BME280;63883;48.996;20.804;2023-04-06T01:46:00;96588.63;;;-2.59;64.95
75290;BME280;63883;48.996;20.804;2023-04-06T01:48:26;96589.88;;;-2.76;65.70
75290;BME280;63883;48.996;20.804;2023-04-06T01:50:53;96580.38;;;-2.91;67.17
75290;BME280;63883;48.996;20.804;2023-04-06T01:53:18;96579.53;;;-2.91;66.95
75290;BME280;63883;48.996;20.804;2023-04-06T01:55:44;96586.06;;;-2.96;66.86
75290;BME280;63883;48.996;20.804;2023-04-06T01:58:10;96579.19;;;-3.05;67.36
75290;BME280;63883;48.996;20.804;2023-04-06T02:00:37;96583.19;;;-3.11;68.01
75290;BME280;63883;48.996;20.804;2023-04-06T02:03:03;96574.72;;;-3.17;68.03
75290;BME280;63883;48.996;20.804;2023-04-06T02:05:31;96567.03;;;-3.26;67.99
75290;BME280;63883;48.996;20.804;2023-04-06T02:07:57;96566.00;;;-3.34;68.54
75290;BME280;63883;48.996;20.804;2023-04-06T02:10:23;96565.75;;;-3.43;69.21
75290;BME280;63883;48.996;20.804;2023-04-06T02:12:49;96558.91;;;-3.50;69.75
75290;BME280;63883;48.996;20.804;2023-04-06T02:15:15;96566.44;;;-3.48;70.42
75290;BME280;63883;48.996;20.804;2023-04-06T02:17:41;96568.03;;;-3.50;69.85
75290;BME280;63883;48.996;20.804;2023-04-06T02:20:08;96570.38;;;-3.57;69.85
75290;BME280;63883;48.996;20.804;2023-04-06T02:22:35;96570.25;;;-3.61;70.16
75290;BME280;63883;48.996;20.804;2023-04-06T02:25:01;96566.88;;;-3.63;69.99
75290;BME280;63883;48.996;20.804;2023-04-06T02:27:27;96561.03;;;-3.64;70.78
75290;BME280;63883;48.996;20.804;2023-04-06T02:29:53;96551.91;;;-3.63;70.86
75290;BME280;63883;48.996;20.804;2023-04-06T02:32:19;96556.97;;;-3.60;70.43
75290;BME280;63883;48.996;20.804;2023-04-06T02:34:45;96555.13;;;-3.67;70.54
75290;BME280;63883;48.996;20.804;2023-04-06T02:37:10;96550.97;;;-3.68;71.45
75290;BME280;63883;48.996;20.804;2023-04-06T02:39:36;96554.38;;;-3.65;71.07
75290;BME280;63883;48.996;20.804;2023-04-06T02:42:02;96542.06;;;-3.59;70.99
75290;BME280;63883;48.996;20.804;2023-04-06T02:44:28;96546.69;;;-3.41;70.48
75290;BME280;63883;48.996;20.804;2023-04-06T02:46:53;96544.16;;;-3.09;68.63
75290;BME280;63883;48.996;20.804;2023-04-06T02:49:19;96551.25;;;-2.92;68.29
75290;BME280;63883;48.996;20.804;2023-04-06T02:51:45;96539.72;;;-2.88;67.60
75290;BME280;63883;48.996;20.804;2023-04-06T02:54:11;96540.56;;;-2.86;67.42
75290;BME280;63883;48.996;20.804;2023-04-06T02:56:36;96541.59;;;-2.78;66.75
75290;BME280;63883;48.996;20.804;2023-04-06T02:59:02;96544.84;;;-2.81;67.46
75290;BME280;63883;48.996;20.804;2023-04-06T03:01:27;96538.19;;;-2.82;67.33
75290;BME280;63883;48.996;20.804;2023-04-06T03:03:53;96539.13;;;-2.77;67.22
75290;BME280;63883;48.996;20.804;2023-04-06T03:06:19;96533.53;;;-2.68;66.11
75290;BME280;63883;48.996;20.804;2023-04-06T03:08:45;96540.34;;;-2.61;66.43
75290;BME280;63883;48.996;20.804;2023-04-06T03:11:10;96541.16;;;-2.62;67.09
75290;BME280;63883;48.996;20.804;2023-04-06T03:13:37;96541.94;;;-2.63;67.21
75290;BME280;63883;48.996;20.804;2023-04-06T03:16:04;96536.03;;;-2.66;66.92
75290;BME280;63883;48.996;20.804;2023-04-06T03:18:31;96525.22;;;-2.67;66.53
75290;BME280;63883;48.996;20.804;2023-04-06T03:20:57;96527.78;;;-2.64;66.93
75290;BME280;63883;48.996;20.804;2023-04-06T03:23:23;96519.03;;;-2.47;65.28
75290;BME280;63883;48.996;20.804;2023-04-06T03:25:48;96514.53;;;-2.22;64.36
75290;BME280;63883;48.996;20.804;2023-04-06T03:28:15;96520.66;;;-2.10;63.28
75290;BME280;63883;48.996;20.804;2023-04-06T03:30:41;96520.81;;;-2.01;63.43
75290;BME280;63883;48.996;20.804;2023-04-06T03:33:07;96526.59;;;-2.03;62.99
75290;BME280;63883;48.996;20.804;2023-04-06T03:35:33;96522.53;;;-1.98;62.65
75290;BME280;63883;48.996;20.804;2023-04-06T03:37:59;96520.06;;;-1.97;62.73
75290;BME280;63883;48.996;20.804;2023-04-06T03:40:24;96516.75;;;-1.95;62.56
75290;BME280;63883;48.996;20.804;2023-04-06T03:42:50;96524.28;;;-1.94;63.17
75290;BME280;63883;48.996;20.804;2023-04-06T03:45:16;96527.88;;;-1.81;62.45
75290;BME280;63883;48.996;20.804;2023-04-06T03:47:42;96519.75;;;-1.70;60.97
75290;BME280;63883;48.996;20.804;2023-04-06T03:50:08;96514.88;;;-1.64;61.51
75290;BME280;63883;48.996;20.804;2023-04-06T03:52:35;96516.56;;;-1.63;60.66
75290;BME280;63883;48.996;20.804;2023-04-06T03:55:01;96511.56;;;-1.63;61.08
75290;BME280;63883;48.996;20.804;2023-04-06T03:57:27;96503.31;;;-1.59;61.23
75290;BME280;63883;48.996;20.804;2023-04-06T03:59:52;96506.84;;;-1.47;60.34
75290;BME280;63883;48.996;20.804;2023-04-06T04:02:18;96508.50;;;-1.48;59.85
75290;BME280;63883;48.996;20.804;2023-04-06T04:04:44;96502.69;;;-1.47;60.24
75290;BME280;63883;48.996;20.804;2023-04-06T04:07:09;96508.47;;;-1.49;60.31
75290;BME280;63883;48.996;20.804;2023-04-06T04:09:36;96511.69;;;-1.55;60.39
75290;BME280;63883;48.996;20.804;2023-04-06T04:12:02;96505.84;;;-1.55;61.30
75290;BME280;63883;48.996;20.804;2023-04-06T04:14:28;96503.38;;;-1.54;61.46
75290;BME280;63883;48.996;20.804;2023-04-06T04:16:54;96506.09;;;-1.42;61.05
75290;BME280;63883;48.996;20.804;2023-04-06T04:19:19;96514.53;;;-1.35;60.84
75290;BME280;63883;48.996;20.804;2023-04-06T04:21:46;96508.00;;;-1.30;60.22
75290;BME280;63883;48.996;20.804;2023-04-06T04:24:12;96508.91;;;-1.25;59.06
75290;BME280;63883;48.996;20.804;2023-04-06T04:26:39;96508.94;;;-1.22;59.64
75290;BME280;63883;48.996;20.804;2023-04-06T04:29:05;96506.50;;;-1.19;59.38
75290;BME280;63883;48.996;20.804;2023-04-06T04:31:32;96503.16;;;-1.20;59.41
75290;BME280;63883;48.996;20.804;2023-04-06T04:33:58;96503.28;;;-1.12;59.85
75290;BME280;63883;48.996;20.804;2023-04-06T04:36:25;96498.50;;;-0.98;59.62
75290;BME280;63883;48.996;20.804;2023-04-06T04:38:52;96496.09;;;-0.94;58.83
75290;BME280;63883;48.996;20.804;2023-04-06T04:41:18;96500.19;;;-0.97;58.28
75290;BME280;63883;48.996;20.804;2023-04-06T04:43:44;96503.38;;;-1.06;58.46
75290;BME280;63883;48.996;20.804;2023-04-06T04:46:10;96493.44;;;-1.03;59.42
75290;BME280;63883;48.996;20.804;2023-04-06T04:48:36;96506.00;;;-0.98;58.85
75290;BME280;63883;48.996;20.804;2023-04-06T04:51:02;96491.84;;;-0.96;59.69
75290;BME280;63883;48.996;20.804;2023-04-06T04:53:27;96505.94;;;-1.03;58.88
75290;BME280;63883;48.996;20.804;2023-04-06T04:55:53;96492.63;;;-0.99;59.01
75290;BME280;63883;48.996;20.804;2023-04-06T04:58:19;96494.38;;;-0.93;58.89
75290;BME280;63883;48.996;20.804;2023-04-06T05:00:46;96497.81;;;-0.88;58.48
75290;BME280;63883;48.996;20.804;2023-04-06T05:03:29;96501.16;;;-0.89;59.24
75290;BME280;63883;48.996;20.804;2023-04-06T05:05:55;96491.84;;;-0.96;58.18
75290;BME280;63883;48.996;20.804;2023-04-06T05:08:21;96492.72;;;-0.93;58.89
75290;BME280;63883;48.996;20.804;2023-04-06T05:10:47;96486.16;;;-0.88;59.24
75290;BME280;63883;48.996;20.804;2023-04-06T05:13:14;96484.50;;;-0.86;59.24
75290;BME280;63883;48.996;20.804;2023-04-06T05:15:40;96489.53;;;-0.84;59.38
75290;BME280;63883;48.996;20.804;2023-04-06T05:18:09;96489.56;;;-0.83;59.63
75290;BME280;63883;48.996;20.804;2023-04-06T05:20:35;96477.91;;;-0.82;60.21
75290;BME280;63883;48.996;20.804;2023-04-06T05:23:01;96482.97;;;-0.77;59.26
75290;BME280;63883;48.996;20.804;2023-04-06T05:25:27;96488.72;;;-0.83;59.56
75290;BME280;63883;48.996;20.804;2023-04-06T05:27:53;96469.47;;;-0.86;57.71
75290;BME280;63883;48.996;20.804;2023-04-06T05:30:19;96478.69;;;-0.85;59.00
75290;BME280;63883;48.996;20.804;2023-04-06T05:32:46;96488.63;;;-0.89;59.57
75290;BME280;63883;48.996;20.804;2023-04-06T05:35:12;96478.75;;;-0.79;59.73
75290;BME280;63883;48.996;20.804;2023-04-06T05:37:39;96473.00;;;-0.74;59.85
75290;BME280;63883;48.996;20.804;2023-04-06T05:40:05;96475.50;;;-0.74;60.39
75290;BME280;63883;48.996;20.804;2023-04-06T05:42:40;96469.50;;;-0.84;58.63
75290;BME280;63883;48.996;20.804;2023-04-06T05:45:09;96466.88;;;-0.92;60.44
75290;BME280;63883;48.996;20.804;2023-04-06T05:47:36;96462.09;;;-0.80;60.99
75290;BME280;63883;48.996;20.804;2023-04-06T05:50:02;96466.16;;;-0.85;61.56
75290;BME280;63883;48.996;20.804;2023-04-06T05:52:28;96450.22;;;-0.91;61.38
75290;BME280;63883;48.996;20.804;2023-04-06T05:54:54;96457.88;;;-0.79;62.25
75290;BME280;63883;48.996;20.804;2023-04-06T05:57:20;96464.59;;;-0.78;62.97
75290;BME280;63883;48.996;20.804;2023-04-06T05:59:45;96456.22;;;-0.79;63.15
75290;BME280;63883;48.996;20.804;2023-04-06T06:02:11;96456.09;;;-0.89;63.89
75290;BME280;63883;48.996;20.804;2023-04-06T06:04:37;96455.50;;;-0.73;63.60
75290;BME280;63883;48.996;20.804;2023-04-06T06:07:03;96452.19;;;-0.70;63.00
75290;BME280;63883;48.996;20.804;2023-04-06T06:09:28;96458.81;;;-0.74;65.20
75290;BME280;63883;48.996;20.804;2023-04-06T06:11:54;96452.00;;;-0.84;66.70
75290;BME280;63883;48.996;20.804;2023-04-06T06:14:20;96456.91;;;-0.90;66.52
75290;BME280;63883;48.996;20.804;2023-04-06T06:16:47;96448.41;;;-1.01;67.08
75290;BME280;63883;48.996;20.804;2023-04-06T06:19:13;96445.72;;;-1.12;69.15
75290;BME280;63883;48.996;20.804;2023-04-06T06:21:39;96445.53;;;-1.24;67.98
75290;BME280;63883;48.996;20.804;2023-04-06T06:24:04;96451.50;;;-1.17;69.48
75290;BME280;63883;48.996;20.804;2023-04-06T06:26:30;96441.50;;;-1.14;69.99
75290;BME280;63883;48.996;20.804;2023-04-06T06:28:56;96448.97;;;-1.17;69.12
75290;BME280;63883;48.996;20.804;2023-04-06T06:31:22;96454.03;;;-1.16;70.56
75290;BME280;63883;48.996;20.804;2023-04-06T06:33:48;96450.50;;;-1.27;69.53
75290;BME280;63883;48.996;20.804;2023-04-06T06:36:16;96453.97;;;-1.19;69.09
75290;BME280;63883;48.996;20.804;2023-04-06T06:38:42;96444.94;;;-1.09;69.15
75290;BME280;63883;48.996;20.804;2023-04-06T06:41:08;96446.00;;;-0.95;69.08
75290;BME280;63883;48.996;20.804;2023-04-06T06:43:33;96450.31;;;-0.85;68.22
75290;BME280;63883;48.996;20.804;2023-04-06T06:45:59;96447.91;;;-0.77;67.21
75290;BME280;63883;48.996;20.804;2023-04-06T06:48:25;96447.88;;;-0.79;66.02
75290;BME280;63883;48.996;20.804;2023-04-06T06:50:51;96451.47;;;-0.62;65.08
75290;BME280;63883;48.996;20.804;2023-04-06T06:53:17;96452.28;;;-0.63;64.73
75290;BME280;63883;48.996;20.804;2023-04-06T06:55:43;96457.22;;;-0.69;65.77
75290;BME280;63883;48.996;20.804;2023-04-06T06:58:09;96459.88;;;-0.58;66.08
75290;BME280;63883;48.996;20.804;2023-04-06T07:00:36;96455.75;;;-0.55;65.46
75290;BME280;63883;48.996;20.804;2023-04-06T07:03:01;96452.53;;;-0.43;65.27
75290;BME280;63883;48.996;20.804;2023-04-06T07:05:27;96454.38;;;-0.31;64.45
75290;BME280;63883;48.996;20.804;2023-04-06T07:07:54;96450.84;;;-0.47;64.30
75290;BME280;63883;48.996;20.804;2023-04-06T07:10:20;96446.72;;;-0.42;64.31
75290;BME280;63883;48.996;20.804;2023-04-06T07:12:45;96461.53;;;-0.59;65.50
75290;BME280;63883;48.996;20.804;2023-04-06T07:15:12;96453.34;;;-0.47;64.85
75290;BME280;63883;48.996;20.804;2023-04-06T07:17:37;96455.84;;;-0.47;62.97
75290;BME280;63883;48.996;20.804;2023-04-06T07:20:04;96453.47;;;-0.38;64.53
75290;BME280;63883;48.996;20.804;2023-04-06T07:22:29;96454.38;;;-0.33;65.14
75290;BME280;63883;48.996;20.804;2023-04-06T07:24:56;96450.97;;;-0.35;65.59
75290;BME280;63883;48.996;20.804;2023-04-06T07:27:21;96439.22;;;-0.42;65.94
75290;BME280;63883;48.996;20.804;2023-04-06T07:29:47;96452.66;;;-0.37;67.23
75290;BME280;63883;48.996;20.804;2023-04-06T07:32:13;96458.44;;;-0.41;66.86
75290;BME280;63883;48.996;20.804;2023-04-06T07:34:39;96450.88;;;-0.46;67.92
75290;BME280;63883;48.996;20.804;2023-04-06T07:37:04;96447.34;;;-0.57;66.98
75290;BME280;63883;48.996;20.804;2023-04-06T07:39:30;96450.91;;;-0.44;68.20
75290;BME280;63883;48.996;20.804;2023-04-06T07:41:56;96448.50;;;-0.36;67.35
75290;BME280;63883;48.996;20.804;2023-04-06T07:44:22;96442.56;;;-0.42;69.04
75290;BME280;63883;48.996;20.804;2023-04-06T07:46:48;96432.41;;;-0.52;69.31
75290;BME280;63883;48.996;20.804;2023-04-06T07:49:14;96438.72;;;-0.80;70.75
75290;BME280;63883;48.996;20.804;2023-04-06T07:51:39;96433.41;;;-1.00;72.88
75290;BME280;63883;48.996;20.804;2023-04-06T07:54:05;96434.00;;;-1.14;71.75
75290;BME280;63883;48.996;20.804;2023-04-06T07:56:31;96431.56;;;-1.11;73.23
75290;BME280;63883;48.996;20.804;2023-04-06T07:58:57;96432.50;;;-1.05;72.66
75290;BME280;63883;48.996;20.804;2023-04-06T08:01:24;96435.25;;;-0.88;73.11
75290;BME280;63883;48.996;20.804;2023-04-06T08:03:50;96438.63;;;-0.85;73.16
75290;BME280;63883;48.996;20.804;2023-04-06T08:06:16;96439.38;;;-0.90;73.17
75290;BME280;63883;48.996;20.804;2023-04-06T08:08:43;96440.28;;;-0.87;74.86
75290;BME280;63883;48.996;20.804;2023-04-06T08:11:09;96435.84;;;-1.04;75.53
75290;BME280;63883;48.996;20.804;2023-04-06T08:13:35;96433.28;;;-1.09;77.51
75290;BME280;63883;48.996;20.804;2023-04-06T08:16:01;96430.47;;;-1.27;76.92
75290;BME280;63883;48.996;20.804;2023-04-06T08:18:27;96431.16;;;-1.37;78.81
75290;BME280;63883;48.996;20.804;2023-04-06T08:20:52;96432.88;;;-1.33;79.02
75290;BME280;63883;48.996;20.804;2023-04-06T08:23:20;96437.16;;;-1.26;80.29
75290;BME280;63883;48.996;20.804;2023-04-06T08:25:45;96431.53;;;-1.13;80.05
75290;BME280;63883;48.996;20.804;2023-04-06T08:28:11;96438.16;;;-1.16;81.50
75290;BME280;63883;48.996;20.804;2023-04-06T08:30:40;96432.91;;;-1.32;82.63
75290;BME280;63883;48.996;20.804;2023-04-06T08:33:06;96430.22;;;-1.42;83.40
75290;BME280;63883;48.996;20.804;2023-04-06T08:35:31;96430.13;;;-1.48;84.29
75290;BME280;63883;48.996;20.804;2023-04-06T08:37:57;96429.28;;;-1.49;84.81
75290;BME280;63883;48.996;20.804;2023-04-06T08:40:23;96428.41;;;-1.51;85.65
75290;BME280;63883;48.996;20.804;2023-04-06T08:42:54;96426.81;;;-1.47;84.71
75290;BME280;63883;48.996;20.804;2023-04-06T08:45:21;96429.88;;;-1.64;85.20
75290;BME280;63883;48.996;20.804;2023-04-06T08:47:51;96430.78;;;-1.60;85.64
75290;BME280;63883;48.996;20.804;2023-04-06T08:50:18;96426.56;;;-1.63;84.71
75290;BME280;63883;48.996;20.804;2023-04-06T08:52:49;96428.78;;;-1.78;85.97
75290;BME280;63883;48.996;20.804;2023-04-06T08:55:15;96429.66;;;-1.76;86.50
75290;BME280;63883;48.996;20.804;2023-04-06T08:57:42;96432.34;;;-1.67;85.97
75290;BME280;63883;48.996;20.804;2023-04-06T09:00:10;96426.63;;;-1.60;86.27
75290;BME280;63883;48.996;20.804;2023-04-06T09:02:39;96423.25;;;-1.62;86.03
75290;BME280;63883;48.996;20.804;2023-04-06T09:05:07;96417.50;;;-1.56;85.99
75290;BME280;63883;48.996;20.804;2023-04-06T09:07:33;96421.63;;;-1.60;85.15
75290;BME280;63883;48.996;20.804;2023-04-06T09:09:59;96427.38;;;-1.64;85.75
75290;BME280;63883;48.996;20.804;2023-04-06T09:12:27;96422.38;;;-1.64;86.13
75290;BME280;63883;48.996;20.804;2023-04-06T09:14:53;96425.84;;;-1.55;86.51
75290;BME280;63883;48.996;20.804;2023-04-06T09:17:23;96431.72;;;-1.53;85.67
75290;BME280;63883;48.996;20.804;2023-04-06T09:19:49;96424.13;;;-1.58;86.25
75290;BME280;63883;48.996;20.804;2023-04-06T09:22:15;96419.22;;;-1.53;85.53
75290;BME280;63883;48.996;20.804;2023-04-06T09:24:46;96421.81;;;-1.47;85.95
75290;BME280;63883;48.996;20.804;2023-04-06T09:27:13;96424.47;;;-1.38;85.74
75290;BME280;63883;48.996;20.804;2023-04-06T09:29:40;96417.69;;;-1.45;83.29
75290;BME280;63883;48.996;20.804;2023-04-06T09:32:08;96420.06;;;-1.53;84.80
75290;BME280;63883;48.996;20.804;2023-04-06T09:34:38;96414.25;;;-1.52;86.27
75290;BME280;63883;48.996;20.804;2023-04-06T09:37:14;96411.75;;;-1.50;85.87
75290;BME280;63883;48.996;20.804;2023-04-06T09:39:40;96406.88;;;-1.44;86.24
75290;BME280;63883;48.996;20.804;2023-04-06T09:42:06;96408.59;;;-1.40;85.57
75290;BME280;63883;48.996;20.804;2023-04-06T09:44:32;96406.03;;;-1.45;85.83
75290;BME280;63883;48.996;20.804;2023-04-06T09:46:58;96400.41;;;-1.32;86.39
75290;BME280;63883;48.996;20.804;2023-04-06T09:49:24;96408.88;;;-1.22;85.78
75290;BME280;63883;48.996;20.804;2023-04-06T09:51:59;96406.34;;;-1.25;86.10
75290;BME280;63883;48.996;20.804;2023-04-06T09:54:28;96413.94;;;-1.19;85.59
75290;BME280;63883;48.996;20.804;2023-04-06T09:57:16;96414.81;;;-1.17;85.44
75290;BME280;63883;48.996;20.804;2023-04-06T10:00:08;96408.06;;;-1.23;85.31
75290;BME280;63883;48.996;20.804;2023-04-06T10:02:59;96413.06;;;-1.21;85.23
75290;BME280;63883;48.996;20.804;2023-04-06T10:08:02;96404.88;;;-1.11;85.35
75290;BME280;63883;48.996;20.804;2023-04-06T10:10:29;96412.38;;;-1.11;85.20
75290;BME280;63883;48.996;20.804;2023-04-06T10:12:56;96401.59;;;-1.07;85.36
75290;BME280;63883;48.996;20.804;2023-04-06T10:15:23;96393.44;;;-0.95;85.04
75290;BME280;63883;48.996;20.804;2023-04-06T10:17:50;96396.91;;;-0.87;83.65
75290;BME280;63883;48.996;20.804;2023-04-06T10:20:22;96395.97;;;-0.92;83.99
75290;BME280;63883;48.996;20.804;2023-04-06T10:25:31;96391.78;;;-0.93;83.71
75290;BME280;63883;48.996;20.804;2023-04-06T10:28:11;96390.97;;;-0.94;84.94
75290;BME280;63883;48.996;20.804;2023-04-06T10:30:42;96390.31;;;-0.81;83.43
75290;BME280;63883;48.996;20.804;2023-04-06T10:33:19;96382.81;;;-0.77;83.10
75290;BME280;63883;48.996;20.804;2023-04-06T10:35:46;96381.25;;;-0.72;83.03
75290;BME280;63883;48.996;20.804;2023-04-06T10:38:12;96379.47;;;-0.80;83.05
75290;BME280;63883;48.996;20.804;2023-04-06T10:40:41;96378.00;;;-0.65;83.37
75290;BME280;63883;48.996;20.804;2023-04-06T10:43:11;96368.91;;;-0.59;82.59
75290;BME280;63883;48.996;20.804;2023-04-06T10:45:38;96379.91;;;-0.45;82.43
75290;BME280;63883;48.996;20.804;2023-04-06T10:48:17;96375.94;;;-0.29;81.33
75290;BME280;63883;48.996;20.804;2023-04-06T10:50:51;96370.19;;;-0.19;80.78
75290;BME280;63883;48.996;20.804;2023-04-06T10:53:26;96377.06;;;0.00;79.11
75290;BME280;63883;48.996;20.804;2023-04-06T10:55:56;96365.38;;;0.03;78.82
75290;BME280;63883;48.996;20.804;2023-04-06T10:58:26;96368.13;;;0.27;79.34
75290;BME280;63883;48.996;20.804;2023-04-06T11:00:53;96370.66;;;0.30;78.87
75290;BME280;63883;48.996;20.804;2023-04-06T11:03:21;96372.38;;;0.37;78.06
75290;BME280;63883;48.996;20.804;2023-04-06T11:05:48;96375.63;;;0.24;78.91
75290;BME280;63883;48.996;20.804;2023-04-06T11:08:33;96373.88;;;0.17;78.68
75290;BME280;63883;48.996;20.804;2023-04-06T11:11:13;96365.41;;;0.04;78.62
75290;BME280;63883;48.996;20.804;2023-04-06T11:13:52;96365.28;;;-0.07;79.57
75290;BME280;63883;48.996;20.804;2023-04-06T11:16:19;96375.31;;;-0.07;79.87
75290;BME280;63883;48.996;20.804;2023-04-06T11:21:40;96366.03;;;-0.14;80.33
75290;BME280;63883;48.996;20.804;2023-04-06T11:24:12;96366.97;;;-0.06;80.39
75290;BME280;63883;48.996;20.804;2023-04-06T11:29:24;96384.34;;;-0.21;80.60
75290;BME280;63883;48.996;20.804;2023-04-06T11:31:52;96380.94;;;-0.29;80.79
75290;BME280;63883;48.996;20.804;2023-04-06T11:34:29;96379.97;;;-0.40;81.18
75290;BME280;63883;48.996;20.804;2023-04-06T11:36:56;96381.56;;;-0.45;81.47
75290;BME280;63883;48.996;20.804;2023-04-06T11:39:24;96384.91;;;-0.46;82.51
75290;BME280;63883;48.996;20.804;2023-04-06T11:41:51;96378.41;;;-0.30;81.86
75290;BME280;63883;48.996;20.804;2023-04-06T11:44:37;96371.81;;;-0.21;81.86
75290;BME280;63883;48.996;20.804;2023-04-06T11:47:09;96376.94;;;-0.12;81.33
75290;BME280;63883;48.996;20.804;2023-04-06T11:49:40;96374.53;;;-0.03;81.60
75290;BME280;63883;48.996;20.804;2023-04-06T11:54:46;96382.22;;;0.13;79.99
75290;BME280;63883;48.996;20.804;2023-04-06T11:57:12;96381.44;;;0.20;79.68
75290;BME280;63883;48.996;20.804;2023-04-06T11:59:39;96380.63;;;0.24;78.81
75290;BME280;63883;48.996;20.804;2023-04-06T12:02:04;96381.50;;;0.26;79.45
75290;BME280;63883;48.996;20.804;2023-04-06T12:04:31;96376.38;;;0.14;79.20
75290;BME280;63883;48.996;20.804;2023-04-06T12:06:57;96376.44;;;0.20;79.92
75290;BME280;63883;48.996;20.804;2023-04-06T12:09:23;96370.50;;;0.13;80.12
75290;BME280;63883;48.996;20.804;2023-04-06T12:11:49;96367.22;;;0.19;79.75
75290;BME280;63883;48.996;20.804;2023-04-06T12:14:15;96367.94;;;0.09;79.42
75290;BME280;63883;48.996;20.804;2023-04-06T12:16:41;96362.03;;;0.02;79.74
75290;BME280;63883;48.996;20.804;2023-04-06T12:19:07;96362.94;;;0.09;79.31
75290;BME280;63883;48.996;20.804;2023-04-06T12:21:34;96367.94;;;0.06;79.91
75290;BME280;63883;48.996;20.804;2023-04-06T12:24:03;96357.09;;;0.10;80.17
75290;BME280;63883;48.996;20.804;2023-04-06T12:26:29;96363.78;;;0.11;80.38
75290;BME280;63883;48.996;20.804;2023-04-06T12:28:55;96359.53;;;0.04;80.71
75290;BME280;63883;48.996;20.804;2023-04-06T12:31:22;96356.25;;;0.06;80.56
75290;BME280;63883;48.996;20.804;2023-04-06T12:33:49;96358.88;;;0.20;79.39
75290;BME280;63883;48.996;20.804;2023-04-06T12:36:16;96353.88;;;0.24;79.24
75290;BME280;63883;48.996;20.804;2023-04-06T12:38:48;96355.56;;;0.24;79.34
75290;BME280;63883;48.996;20.804;2023-04-06T12:41:14;96351.34;;;0.20;79.21
75290;BME280;63883;48.996;20.804;2023-04-06T12:43:41;96356.31;;;0.15;79.44
75290;BME280;63883;48.996;20.804;2023-04-06T12:46:07;96352.16;;;0.14;79.87
75290;BME280;63883;48.996;20.804;2023-04-06T12:48:33;96345.44;;;0.12;79.94
75290;BME280;63883;48.996;20.804;2023-04-06T12:51:01;96349.72;;;0.25;79.66
75290;BME280;63883;48.996;20.804;2023-04-06T12:53:27;96346.38;;;0.24;79.96
75290;BME280;63883;48.996;20.804;2023-04-06T12:55:54;96342.09;;;0.16;80.38
75290;BME280;63883;48.996;20.804;2023-04-06T12:58:20;96341.19;;;0.08;80.35
75290;BME280;63883;48.996;20.804;2023-04-06T13:00:50;96344.56;;;0.10;79.64
75290;BME280;63883;48.996;20.804;2023-04-06T13:03:19;96332.81;;;0.04;79.55